sensor_id;sensor_type;location;lat;lon;timestamp;temperature;humidity
11035;DHT22;5571;48.110;-1.706;2023-03-14T00:02:18;11.50;99.90
11035;DHT22;5571;48.110;-1.706;2023-03-14T00:04:44;11.50;99.90
11035;DHT22;5571;48.110;-1.706;2023-03-14T00:07:11;11.50;99.90
11035;DHT22;5571;48.110;-1.706;2023-03-14T00:09:37;11.50;99.90
11035;DHT22;5571;48.110;-1.706;2023-03-14T00:12:02;11.50;99.90
11035;DHT22;5571;48.110;-1.706;2023-03-14T00:14:29;11.50;99.90
11035;DHT22;5571;48.110;-1.706;2023-03-14T00:16:54;11.50;99.90
11035;DHT22;5571;48.110;-1.706;2023-03-14T00:19:20;11.50;99.90
11035;DHT22;5571;48.110;-1.706;2023-03-14T00:21:46;11.60;99.90
11035;DHT22;5571;48.110;-1.706;2023-03-14T00:24:12;11.60;99.90
11035;DHT22;5571;48.110;-1.706;2023-03-14T00:26:38;11.60;99.90
11035;DHT22;5571;48.110;-1.706;2023-03-14T00:29:03;11.60;99.90
11035;DHT22;5571;48.110;-1.706;2023-03-14T00:31:29;11.60;99.90
11035;DHT22;5571;48.110;-1.706;2023-03-14T00:33:55;11.60;99.90
11035;DHT22;5571;48.110;-1.706;2023-03-14T00:36:21;11.60;99.90
11035;DHT22;5571;48.110;-1.706;2023-03-14T00:38:48;11.60;99.90
11035;DHT22;5571;48.110;-1.706;2023-03-14T00:41:18;11.60;99.90
11035;DHT22;5571;48.110;-1.706;2023-03-14T00:43:44;11.70;99.90
11035;DHT22;5571;48.110;-1.706;2023-03-14T00:46:10;11.60;99.90
11035;DHT22;5571;48.110;-1.706;2023-03-14T00:48:36;11.60;99.90
11035;DHT22;5571;48.110;-1.706;2023-03-14T00:51:03;11.60;99.90
11035;DHT22;5571;48.110;-1.706;2023-03-14T00:53:29;11.50;99.90
11035;DHT22;5571;48.110;-1.706;2023-03-14T00:55:55;11.50;99.90
11035;DHT22;5571;48.110;-1.706;2023-03-14T00:58:21;11.50;99.90
11035;DHT22;5571;48.110;-1.706;2023-03-14T01:00:47;11.50;99.90
11035;DHT22;5571;48.110;-1.706;2023-03-14T01:03:13;11.50;99.90
11035;DHT22;5571;48.110;-1.706;2023-03-14T01:05:39;11.40;99.90
11035;DHT22;5571;48.110;-1.706;2023-03-14T01:08:05;11.30;99.90
11035;DHT22;5571;48.110;-1.706;2023-03-14T01:10:32;11.10;99.90
11035;DHT22;5571;48.110;-1.706;2023-03-14T01:12:58;11.00;99.90
11035;DHT22;5571;48.110;-1.706;2023-03-14T01:15:23;10.90;99.90
11035;DHT22;5571;48.110;-1.706;2023-03-14T01:17:49;10.90;99.90
11035;DHT22;5571;48.110;-1.706;2023-03-14T01:20:15;10.90;99.90
11035;DHT22;5571;48.110;-1.706;2023-03-14T01:22:42;10.80;99.90
11035;DHT22;5571;48.110;-1.706;2023-03-14T01:25:11;10.80;99.90
11035;DHT22;5571;48.110;-1.706;2023-03-14T01:27:37;10.80;99.90
11035;DHT22;5571;48.110;-1.706;2023-03-14T01:30:04;10.80;99.90
11035;DHT22;5571;48.110;-1.706;2023-03-14T01:32:30;10.80;99.90
11035;DHT22;5571;48.110;-1.706;2023-03-14T01:34:56;10.80;99.90
11035;DHT22;5571;48.110;-1.706;2023-03-14T01:37:21;10.80;99.90
11035;DHT22;5571;48.110;-1.706;2023-03-14T01:39:47;10.70;99.90
11035;DHT22;5571;48.110;-1.706;2023-03-14T01:42:14;10.70;99.90
11035;DHT22;5571;48.110;-1.706;2023-03-14T01:44:48;10.70;99.90
11035;DHT22;5571;48.110;-1.706;2023-03-14T01:47:14;10.70;99.90
11035;DHT22;5571;48.110;-1.706;2023-03-14T01:49:39;10.70;99.90
11035;DHT22;5571;48.110;-1.706;2023-03-14T01:52:16;10.70;99.90
11035;DHT22;5571;48.110;-1.706;2023-03-14T01:54:47;10.70;99.90
11035;DHT22;5571;48.110;-1.706;2023-03-14T01:57:25;10.50;99.90
11035;DHT22;5571;48.110;-1.706;2023-03-14T02:02:31;10.50;99.90
11035;DHT22;5571;48.110;-1.706;2023-03-14T02:04:58;10.40;99.90
11035;DHT22;5571;48.110;-1.706;2023-03-14T02:07:35;10.40;99.90
11035;DHT22;5571;48.110;-1.706;2023-03-14T02:10:03;10.30;99.90
11035;DHT22;5571;48.110;-1.706;2023-03-14T02:12:29;10.30;99.90
11035;DHT22;5571;48.110;-1.706;2023-03-14T02:14:55;10.30;99.90
11035;DHT22;5571;48.110;-1.706;2023-03-14T02:17:23;10.20;99.90
11035;DHT22;5571;48.110;-1.706;2023-03-14T02:22:26;10.10;99.90
11035;DHT22;5571;48.110;-1.706;2023-03-14T02:25:19;10.10;99.90
11035;DHT22;5571;48.110;-1.706;2023-03-14T02:27:47;9.90;99.90
11035;DHT22;5571;48.110;-1.706;2023-03-14T02:30:18;9.90;99.90
11035;DHT22;5571;48.110;-1.706;2023-03-14T02:32:47;9.90;99.90
11035;DHT22;5571;48.110;-1.706;2023-03-14T02:35:17;9.90;99.90
11035;DHT22;5571;48.110;-1.706;2023-03-14T02:40:15;9.90;99.90
11035;DHT22;5571;48.110;-1.706;2023-03-14T02:42:41;9.90;99.90
11035;DHT22;5571;48.110;-1.706;2023-03-14T02:47:37;9.90;99.90
11035;DHT22;5571;48.110;-1.706;2023-03-14T02:50:10;9.80;99.90
11035;DHT22;5571;48.110;-1.706;2023-03-14T02:52:37;9.80;99.90
11035;DHT22;5571;48.110;-1.706;2023-03-14T02:55:03;9.70;99.90
11035;DHT22;5571;48.110;-1.706;2023-03-14T02:57:29;9.60;99.90
11035;DHT22;5571;48.110;-1.706;2023-03-14T02:59:58;9.50;99.90
11035;DHT22;5571;48.110;-1.706;2023-03-14T03:02:25;9.40;99.90
11035;DHT22;5571;48.110;-1.706;2023-03-14T03:04:51;9.40;99.90
11035;DHT22;5571;48.110;-1.706;2023-03-14T03:07:16;9.30;99.90
11035;DHT22;5571;48.110;-1.706;2023-03-14T03:09:42;9.30;99.90
11035;DHT22;5571;48.110;-1.706;2023-03-14T03:12:07;9.20;99.90
11035;DHT22;5571;48.110;-1.706;2023-03-14T03:14:33;9.20;99.90
11035;DHT22;5571;48.110;-1.706;2023-03-14T03:16:58;9.20;99.90
11035;DHT22;5571;48.110;-1.706;2023-03-14T03:19:24;9.20;99.90
11035;DHT22;5571;48.110;-1.706;2023-03-14T03:21:50;9.20;99.90
11035;DHT22;5571;48.110;-1.706;2023-03-14T03:24:15;9.20;99.90
11035;DHT22;5571;48.110;-1.706;2023-03-14T03:26:41;9.30;99.90
11035;DHT22;5571;48.110;-1.706;2023-03-14T03:29:06;9.40;99.90
11035;DHT22;5571;48.110;-1.706;2023-03-14T03:31:32;9.30;99.90
11035;DHT22;5571;48.110;-1.706;2023-03-14T03:33:58;9.30;99.90
11035;DHT22;5571;48.110;-1.706;2023-03-14T03:36:25;9.30;99.90
11035;DHT22;5571;48.110;-1.706;2023-03-14T03:38:51;9.30;99.90
11035;DHT22;5571;48.110;-1.706;2023-03-14T03:41:16;9.20;99.90
11035;DHT22;5571;48.110;-1.706;2023-03-14T03:43:42;9.10;99.90
11035;DHT22;5571;48.110;-1.706;2023-03-14T03:46:08;9.20;99.90
11035;DHT22;5571;48.110;-1.706;2023-03-14T03:48:35;9.20;99.90
11035;DHT22;5571;48.110;-1.706;2023-03-14T03:51:00;9.20;99.90
11035;DHT22;5571;48.110;-1.706;2023-03-14T03:53:26;9.20;99.90
11035;DHT22;5571;48.110;-1.706;2023-03-14T03:55:52;9.20;99.90
11035;DHT22;5571;48.110;-1.706;2023-03-14T03:58:17;9.20;99.90
11035;DHT22;5571;48.110;-1.706;2023-03-14T04:00:43;9.30;99.90
11035;DHT22;5571;48.110;-1.706;2023-03-14T04:03:09;9.30;99.90
11035;DHT22;5571;48.110;-1.706;2023-03-14T04:05:34;9.30;99.90
11035;DHT22;5571;48.110;-1.706;2023-03-14T04:08:01;9.40;99.90
11035;DHT22;5571;48.110;-1.706;2023-03-14T04:10:26;9.40;99.90
11035;DHT22;5571;48.110;-1.706;2023-03-14T04:12:52;9.40;99.90
11035;DHT22;5571;48.110;-1.706;2023-03-14T04:15:18;9.40;99.90
11035;DHT22;5571;48.110;-1.706;2023-03-14T04:17:44;9.40;99.90
11035;DHT22;5571;48.110;-1.706;2023-03-14T04:20:10;9.40;99.90
11035;DHT22;5571;48.110;-1.706;2023-03-14T04:22:37;9.40;99.90
11035;DHT22;5571;48.110;-1.706;2023-03-14T04:25:03;9.30;99.90
11035;DHT22;5571;48.110;-1.706;2023-03-14T04:27:29;9.30;99.90
11035;DHT22;5571;48.110;-1.706;2023-03-14T04:29:55;9.30;99.90
11035;DHT22;5571;48.110;-1.706;2023-03-14T04:32:20;9.30;99.90
11035;DHT22;5571;48.110;-1.706;2023-03-14T04:34:46;9.20;99.90
11035;DHT22;5571;48.110;-1.706;2023-03-14T04:37:12;9.20;99.90
11035;DHT22;5571;48.110;-1.706;2023-03-14T04:39:38;9.20;99.90
11035;DHT22;5571;48.110;-1.706;2023-03-14T04:42:04;9.10;99.90
11035;DHT22;5571;48.110;-1.706;2023-03-14T04:44:29;9.10;99.90
11035;DHT22;5571;48.110;-1.706;2023-03-14T04:46:55;9.10;99.90
11035;DHT22;5571;48.110;-1.706;2023-03-14T04:49:21;9.10;99.90
11035;DHT22;5571;48.110;-1.706;2023-03-14T04:51:48;9.00;99.90
11035;DHT22;5571;48.110;-1.706;2023-03-14T04:54:16;9.00;99.90
11035;DHT22;5571;48.110;-1.706;2023-03-14T04:56:41;8.90;99.90
11035;DHT22;5571;48.110;-1.706;2023-03-14T04:59:07;8.90;99.90
11035;DHT22;5571;48.110;-1.706;2023-03-14T05:01:34;8.90;99.90
11035;DHT22;5571;48.110;-1.706;2023-03-14T05:03:59;8.90;99.90
11035;DHT22;5571;48.110;-1.706;2023-03-14T05:06:25;8.80;99.90
11035;DHT22;5571;48.110;-1.706;2023-03-14T05:08:50;8.90;99.90
11035;DHT22;5571;48.110;-1.706;2023-03-14T05:11:16;8.90;99.90
11035;DHT22;5571;48.110;-1.706;2023-03-14T05:13:42;8.80;99.90
11035;DHT22;5571;48.110;-1.706;2023-03-14T05:16:09;8.80;99.90
11035;DHT22;5571;48.110;-1.706;2023-03-14T05:18:35;8.80;99.90
11035;DHT22;5571;48.110;-1.706;2023-03-14T05:21:01;8.80;99.90
11035;DHT22;5571;48.110;-1.706;2023-03-14T05:23:27;8.70;99.90
11035;DHT22;5571;48.110;-1.706;2023-03-14T05:25:52;8.70;99.90
11035;DHT22;5571;48.110;-1.706;2023-03-14T05:28:18;8.60;99.90
11035;DHT22;5571;48.110;-1.706;2023-03-14T05:30:44;8.60;99.90
11035;DHT22;5571;48.110;-1.706;2023-03-14T05:33:09;8.70;99.90
11035;DHT22;5571;48.110;-1.706;2023-03-14T05:35:35;8.60;99.90
11035;DHT22;5571;48.110;-1.706;2023-03-14T05:38:00;8.60;99.90
11035;DHT22;5571;48.110;-1.706;2023-03-14T05:40:26;8.50;99.90
11035;DHT22;5571;48.110;-1.706;2023-03-14T05:42:52;8.50;99.90
11035;DHT22;5571;48.110;-1.706;2023-03-14T05:45:17;8.50;99.90
11035;DHT22;5571;48.110;-1.706;2023-03-14T05:47:43;8.50;99.90
11035;DHT22;5571;48.110;-1.706;2023-03-14T05:50:09;8.50;99.90
11035;DHT22;5571;48.110;-1.706;2023-03-14T05:52:35;8.40;99.90
11035;DHT22;5571;48.110;-1.706;2023-03-14T05:55:01;8.40;99.90
11035;DHT22;5571;48.110;-1.706;2023-03-14T05:57:27;8.40;99.90
11035;DHT22;5571;48.110;-1.706;2023-03-14T05:59:52;8.30;99.90
11035;DHT22;5571;48.110;-1.706;2023-03-14T06:02:18;8.40;99.90
11035;DHT22;5571;48.110;-1.706;2023-03-14T06:04:44;8.30;99.90
11035;DHT22;5571;48.110;-1.706;2023-03-14T06:07:09;8.30;99.90
11035;DHT22;5571;48.110;-1.706;2023-03-14T06:09:35;8.30;99.90
11035;DHT22;5571;48.110;-1.706;2023-03-14T06:12:01;8.20;99.90
11035;DHT22;5571;48.110;-1.706;2023-03-14T06:14:26;8.20;99.90
11035;DHT22;5571;48.110;-1.706;2023-03-14T06:16:52;8.20;99.90
11035;DHT22;5571;48.110;-1.706;2023-03-14T06:19:18;8.20;99.90
11035;DHT22;5571;48.110;-1.706;2023-03-14T06:21:44;8.20;99.90
11035;DHT22;5571;48.110;-1.706;2023-03-14T06:24:11;8.20;99.90
11035;DHT22;5571;48.110;-1.706;2023-03-14T06:26:36;8.10;99.90
11035;DHT22;5571;48.110;-1.706;2023-03-14T06:29:02;8.20;99.90
11035;DHT22;5571;48.110;-1.706;2023-03-14T06:31:32;8.10;99.90
11035;DHT22;5571;48.110;-1.706;2023-03-14T06:33:58;8.10;99.90
11035;DHT22;5571;48.110;-1.706;2023-03-14T06:36:24;8.10;99.90
11035;DHT22;5571;48.110;-1.706;2023-03-14T06:38:50;8.20;99.90
11035;DHT22;5571;48.110;-1.706;2023-03-14T06:41:16;8.20;99.90
11035;DHT22;5571;48.110;-1.706;2023-03-14T06:43:41;8.30;99.90
11035;DHT22;5571;48.110;-1.706;2023-03-14T06:46:07;8.20;99.90
11035;DHT22;5571;48.110;-1.706;2023-03-14T06:48:33;8.20;99.90
11035;DHT22;5571;48.110;-1.706;2023-03-14T06:50:58;8.20;99.90
11035;DHT22;5571;48.110;-1.706;2023-03-14T06:53:24;8.30;99.90
11035;DHT22;5571;48.110;-1.706;2023-03-14T06:55:50;8.20;99.90
11035;DHT22;5571;48.110;-1.706;2023-03-14T06:58:15;8.20;99.90
11035;DHT22;5571;48.110;-1.706;2023-03-14T07:00:41;8.20;99.90
11035;DHT22;5571;48.110;-1.706;2023-03-14T07:03:07;8.20;99.90
11035;DHT22;5571;48.110;-1.706;2023-03-14T07:05:33;8.20;99.90
11035;DHT22;5571;48.110;-1.706;2023-03-14T07:07:58;8.20;99.90
11035;DHT22;5571;48.110;-1.706;2023-03-14T07:10:24;8.20;99.90
11035;DHT22;5571;48.110;-1.706;2023-03-14T07:12:50;8.30;99.90
11035;DHT22;5571;48.110;-1.706;2023-03-14T07:15:16;8.20;99.90
11035;DHT22;5571;48.110;-1.706;2023-03-14T07:17:41;8.10;99.90
11035;DHT22;5571;48.110;-1.706;2023-03-14T07:20:07;8.10;99.90
11035;DHT22;5571;48.110;-1.706;2023-03-14T07:22:34;8.10;99.90
11035;DHT22;5571;48.110;-1.706;2023-03-14T07:25:00;8.10;99.90
11035;DHT22;5571;48.110;-1.706;2023-03-14T07:27:25;8.20;99.90
11035;DHT22;5571;48.110;-1.706;2023-03-14T07:29:51;8.10;99.90
11035;DHT22;5571;48.110;-1.706;2023-03-14T07:32:16;8.20;99.90
11035;DHT22;5571;48.110;-1.706;2023-03-14T07:34:42;8.10;99.90
11035;DHT22;5571;48.110;-1.706;2023-03-14T07:37:08;8.20;99.90
11035;DHT22;5571;48.110;-1.706;2023-03-14T07:39:34;8.10;99.90
11035;DHT22;5571;48.110;-1.706;2023-03-14T07:41:59;8.10;99.90
11035;DHT22;5571;48.110;-1.706;2023-03-14T07:44:26;8.10;99.90
11035;DHT22;5571;48.110;-1.706;2023-03-14T07:46:51;8.10;99.90
11035;DHT22;5571;48.110;-1.706;2023-03-14T07:49:17;8.20;99.90
11035;DHT22;5571;48.110;-1.706;2023-03-14T07:51:42;8.20;99.90
11035;DHT22;5571;48.110;-1.706;2023-03-14T07:54:09;8.30;99.90
11035;DHT22;5571;48.110;-1.706;2023-03-14T07:56:35;8.20;99.90
11035;DHT22;5571;48.110;-1.706;2023-03-14T07:59:01;8.40;99.90
11035;DHT22;5571;48.110;-1.706;2023-03-14T08:01:26;8.50;99.90
11035;DHT22;5571;48.110;-1.706;2023-03-14T08:03:52;8.50;99.90
11035;DHT22;5571;48.110;-1.706;2023-03-14T08:06:18;8.60;99.90
11035;DHT22;5571;48.110;-1.706;2023-03-14T08:08:43;8.60;99.90
11035;DHT22;5571;48.110;-1.706;2023-03-14T08:11:09;8.60;99.90
11035;DHT22;5571;48.110;-1.706;2023-03-14T08:13:36;8.70;99.90
11035;DHT22;5571;48.110;-1.706;2023-03-14T08:16:02;8.80;99.90
11035;DHT22;5571;48.110;-1.706;2023-03-14T08:18:27;8.80;99.90
11035;DHT22;5571;48.110;-1.706;2023-03-14T08:20:53;8.90;99.90
11035;DHT22;5571;48.110;-1.706;2023-03-14T08:23:18;8.90;99.90
11035;DHT22;5571;48.110;-1.706;2023-03-14T08:25:44;9.00;99.90
11035;DHT22;5571;48.110;-1.706;2023-03-14T08:28:10;8.90;99.90
11035;DHT22;5571;48.110;-1.706;2023-03-14T08:30:35;9.10;99.90
11035;DHT22;5571;48.110;-1.706;2023-03-14T08:33:01;9.10;99.90
11035;DHT22;5571;48.110;-1.706;2023-03-14T08:35:27;9.10;99.90
11035;DHT22;5571;48.110;-1.706;2023-03-14T08:37:53;9.30;99.90
11035;DHT22;5571;48.110;-1.706;2023-03-14T08:40:19;9.40;99.90
11035;DHT22;5571;48.110;-1.706;2023-03-14T08:42:45;9.40;99.90
11035;DHT22;5571;48.110;-1.706;2023-03-14T08:45:13;9.40;99.90
11035;DHT22;5571;48.110;-1.706;2023-03-14T08:47:38;9.40;99.90
11035;DHT22;5571;48.110;-1.706;2023-03-14T08:50:06;9.50;99.90
11035;DHT22;5571;48.110;-1.706;2023-03-14T08:52:32;9.60;99.90
11035;DHT22;5571;48.110;-1.706;2023-03-14T08:54:58;9.60;99.90
11035;DHT22;5571;48.110;-1.706;2023-03-14T08:57:24;9.60;99.90
11035;DHT22;5571;48.110;-1.706;2023-03-14T08:59:53;9.60;99.90
11035;DHT22;5571;48.110;-1.706;2023-03-14T09:02:20;9.60;99.90
11035;DHT22;5571;48.110;-1.706;2023-03-14T09:04:46;9.70;99.90
11035;DHT22;5571;48.110;-1.706;2023-03-14T09:07:12;9.80;99.90
11035;DHT22;5571;48.110;-1.706;2023-03-14T09:09:38;9.80;99.90
11035;DHT22;5571;48.110;-1.706;2023-03-14T09:12:04;9.90;99.90
11035;DHT22;5571;48.110;-1.706;2023-03-14T09:14:30;10.00;99.90
11035;DHT22;5571;48.110;-1.706;2023-03-14T09:16:56;10.00;99.90
11035;DHT22;5571;48.110;-1.706;2023-03-14T09:19:22;10.10;99.90
11035;DHT22;5571;48.110;-1.706;2023-03-14T09:21:47;10.10;99.90
11035;DHT22;5571;48.110;-1.706;2023-03-14T09:24:13;10.30;99.90
11035;DHT22;5571;48.110;-1.706;2023-03-14T09:26:38;10.20;99.90
11035;DHT22;5571;48.110;-1.706;2023-03-14T09:29:04;10.20;99.90
11035;DHT22;5571;48.110;-1.706;2023-03-14T09:31:30;10.20;99.90
11035;DHT22;5571;48.110;-1.706;2023-03-14T09:33:55;10.20;99.90
11035;DHT22;5571;48.110;-1.706;2023-03-14T09:36:21;10.20;99.90
11035;DHT22;5571;48.110;-1.706;2023-03-14T09:38:47;10.20;99.90
11035;DHT22;5571;48.110;-1.706;2023-03-14T09:41:21;10.10;99.90
11035;DHT22;5571;48.110;-1.706;2023-03-14T09:43:51;10.20;99.90
11035;DHT22;5571;48.110;-1.706;2023-03-14T09:46:18;10.20;99.90
11035;DHT22;5571;48.110;-1.706;2023-03-14T09:48:45;10.40;99.90
11035;DHT22;5571;48.110;-1.706;2023-03-14T09:51:17;10.50;99.90
11035;DHT22;5571;48.110;-1.706;2023-03-14T09:53:46;10.70;99.90
11035;DHT22;5571;48.110;-1.706;2023-03-14T09:56:25;10.70;99.90
11035;DHT22;5571;48.110;-1.706;2023-03-14T09:58:55;10.80;99.90
11035;DHT22;5571;48.110;-1.706;2023-03-14T10:01:25;10.90;99.90
11035;DHT22;5571;48.110;-1.706;2023-03-14T10:03:55;11.00;99.90
11035;DHT22;5571;48.110;-1.706;2023-03-14T10:06:25;10.90;99.90
11035;DHT22;5571;48.110;-1.706;2023-03-14T10:08:51;10.70;99.90
11035;DHT22;5571;48.110;-1.706;2023-03-14T10:11:19;10.70;99.90
11035;DHT22;5571;48.110;-1.706;2023-03-14T10:16:36;11.00;99.90
11035;DHT22;5571;48.110;-1.706;2023-03-14T10:19:07;11.10;99.90
11035;DHT22;5571;48.110;-1.706;2023-03-14T10:21:42;11.10;99.90
11035;DHT22;5571;48.110;-1.706;2023-03-14T10:24:29;11.10;99.90
11035;DHT22;5571;48.110;-1.706;2023-03-14T10:27:03;11.10;99.90
11035;DHT22;5571;48.110;-1.706;2023-03-14T10:29:32;11.00;99.90
11035;DHT22;5571;48.110;-1.706;2023-03-14T10:32:06;10.70;99.90
11035;DHT22;5571;48.110;-1.706;2023-03-14T10:34:38;10.80;99.90
11035;DHT22;5571;48.110;-1.706;2023-03-14T10:37:23;11.00;99.90
11035;DHT22;5571;48.110;-1.706;2023-03-14T10:39:53;11.10;99.90
11035;DHT22;5571;48.110;-1.706;2023-03-14T10:42:26;11.10;99.90
11035;DHT22;5571;48.110;-1.706;2023-03-14T10:44:57;11.30;99.90
11035;DHT22;5571;48.110;-1.706;2023-03-14T10:47:26;11.50;99.90
11035;DHT22;5571;48.110;-1.706;2023-03-14T10:49:54;11.80;99.90
11035;DHT22;5571;48.110;-1.706;2023-03-14T10:52:23;11.90;99.90
11035;DHT22;5571;48.110;-1.706;2023-03-14T10:55:09;12.00;99.90
11035;DHT22;5571;48.110;-1.706;2023-03-14T10:57:39;12.00;99.90
11035;DHT22;5571;48.110;-1.706;2023-03-14T11:00:09;12.20;99.90
11035;DHT22;5571;48.110;-1.706;2023-03-14T11:06:31;12.70;99.90
11035;DHT22;5571;48.110;-1.706;2023-03-14T11:11:29;12.60;99.90
11035;DHT22;5571;48.110;-1.706;2023-03-14T11:14:09;12.60;99.90
11035;DHT22;5571;48.110;-1.706;2023-03-14T11:16:53;12.70;99.90
11035;DHT22;5571;48.110;-1.706;2023-03-14T11:27:09;12.70;99.90
11035;DHT22;5571;48.110;-1.706;2023-03-14T11:29:54;12.40;99.90
11035;DHT22;5571;48.110;-1.706;2023-03-14T11:32:42;12.60;99.90
11035;DHT22;5571;48.110;-1.706;2023-03-14T11:36:06;12.80;99.90
11035;DHT22;5571;48.110;-1.706;2023-03-14T11:40:50;13.40;99.90
11035;DHT22;5571;48.110;-1.706;2023-03-14T11:43:21;13.50;99.90
11035;DHT22;5571;48.110;-1.706;2023-03-14T11:45:56;13.20;99.90
11035;DHT22;5571;48.110;-1.706;2023-03-14T11:48:43;13.00;99.90
11035;DHT22;5571;48.110;-1.706;2023-03-14T11:51:23;13.10;99.90
11035;DHT22;5571;48.110;-1.706;2023-03-14T11:54:03;13.30;99.90
11035;DHT22;5571;48.110;-1.706;2023-03-14T11:56:34;13.30;99.90
11035;DHT22;5571;48.110;-1.706;2023-03-14T11:59:07;13.40;99.90
11035;DHT22;5571;48.110;-1.706;2023-03-14T12:01:45;13.30;99.90
11035;DHT22;5571;48.110;-1.706;2023-03-14T12:07:12;13.70;99.90
11035;DHT22;5571;48.110;-1.706;2023-03-14T12:09:41;13.80;99.90
11035;DHT22;5571;48.110;-1.706;2023-03-14T12:12:13;14.20;99.90
11035;DHT22;5571;48.110;-1.706;2023-03-14T12:14:45;14.30;99.90
11035;DHT22;5571;48.110;-1.706;2023-03-14T12:17:21;14.50;99.90
11035;DHT22;5571;48.110;-1.706;2023-03-14T12:19:48;14.40;99.90
11035;DHT22;5571;48.110;-1.706;2023-03-14T12:22:27;14.30;99.90
11035;DHT22;5571;48.110;-1.706;2023-03-14T12:25:05;13.90;99.90
11035;DHT22;5571;48.110;-1.706;2023-03-14T12:30:36;14.30;99.90
11035;DHT22;5571;48.110;-1.706;2023-03-14T12:38:04;13.50;99.90
11035;DHT22;5571;48.110;-1.706;2023-03-14T12:40:33;13.30;99.90
11035;DHT22;5571;48.110;-1.706;2023-03-14T12:43:02;13.20;99.90
11035;DHT22;5571;48.110;-1.706;2023-03-14T12:45:33;13.10;99.90
11035;DHT22;5571;48.110;-1.706;2023-03-14T12:48:08;13.30;99.90
11035;DHT22;5571;48.110;-1.706;2023-03-14T12:50:43;13.50;99.90
11035;DHT22;5571;48.110;-1.706;2023-03-14T12:59:14;13.50;99.90
11035;DHT22;5571;48.110;-1.706;2023-03-14T13:01:47;13.50;99.90
11035;DHT22;5571;48.110;-1.706;2023-03-14T13:04:18;13.80;99.90
11035;DHT22;5571;48.110;-1.706;2023-03-14T13:06:57;13.90;99.90
11035;DHT22;5571;48.110;-1.706;2023-03-14T13:11:55;13.50;99.90
11035;DHT22;5571;48.110;-1.706;2023-03-14T13:14:22;13.80;99.90
11035;DHT22;5571;48.110;-1.706;2023-03-14T13:16:48;14.20;99.90
11035;DHT22;5571;48.110;-1.706;2023-03-14T13:19:21;14.20;99.40
11035;DHT22;5571;48.110;-1.706;2023-03-14T13:21:50;14.40;99.00
11035;DHT22;5571;48.110;-1.706;2023-03-14T13:24:24;14.40;98.60
11035;DHT22;5571;48.110;-1.706;2023-03-14T13:26:53;14.60;98.60
11035;DHT22;5571;48.110;-1.706;2023-03-14T13:29:24;14.50;97.90
11035;DHT22;5571;48.110;-1.706;2023-03-14T13:31:52;14.70;99.10
11035;DHT22;5571;48.110;-1.706;2023-03-14T13:34:19;14.90;98.60
11035;DHT22;5571;48.110;-1.706;2023-03-14T13:36:45;15.00;99.40
11035;DHT22;5571;48.110;-1.706;2023-03-14T13:39:17;15.10;98.40
11035;DHT22;5571;48.110;-1.706;2023-03-14T13:41:45;15.10;99.00
11035;DHT22;5571;48.110;-1.706;2023-03-14T13:44:17;15.30;98.50
11035;DHT22;5571;48.110;-1.706;2023-03-14T13:46:44;15.70;99.90
11035;DHT22;5571;48.110;-1.706;2023-03-14T13:49:13;15.90;99.90
11035;DHT22;5571;48.110;-1.706;2023-03-14T13:51:42;16.00;99.90
11035;DHT22;5571;48.110;-1.706;2023-03-14T13:54:19;15.80;99.90
11035;DHT22;5571;48.110;-1.706;2023-03-14T13:56:45;15.50;99.90
11035;DHT22;5571;48.110;-1.706;2023-03-14T13:59:25;15.50;99.90
11035;DHT22;5571;48.110;-1.706;2023-03-14T14:01:52;15.60;99.90
11035;DHT22;5571;48.110;-1.706;2023-03-14T14:04:20;15.70;99.90
11035;DHT22;5571;48.110;-1.706;2023-03-14T14:07:00;15.70;99.90
11035;DHT22;5571;48.110;-1.706;2023-03-14T14:09:37;15.70;99.90
11035;DHT22;5571;48.110;-1.706;2023-03-14T14:12:06;15.60;99.90
11035;DHT22;5571;48.110;-1.706;2023-03-14T14:14:35;15.50;99.90
11035;DHT22;5571;48.110;-1.706;2023-03-14T14:17:05;15.30;99.90
11035;DHT22;5571;48.110;-1.706;2023-03-14T14:19:33;15.40;99.90
11035;DHT22;5571;48.110;-1.706;2023-03-14T14:21:59;15.60;99.90
11035;DHT22;5571;48.110;-1.706;2023-03-14T14:24:30;15.70;99.90
11035;DHT22;5571;48.110;-1.706;2023-03-14T14:27:39;15.80;99.90
11035;DHT22;5571;48.110;-1.706;2023-03-14T14:30:32;16.10;99.90
11035;DHT22;5571;48.110;-1.706;2023-03-14T14:33:12;16.20;99.90
11035;DHT22;5571;48.110;-1.706;2023-03-14T14:35:42;16.30;99.90
11035;DHT22;5571;48.110;-1.706;2023-03-14T14:38:12;15.90;99.90
11035;DHT22;5571;48.110;-1.706;2023-03-14T14:40:46;15.50;99.90
11035;DHT22;5571;48.110;-1.706;2023-03-14T14:43:21;15.40;99.90
11035;DHT22;5571;48.110;-1.706;2023-03-14T14:45:52;15.40;99.90
11035;DHT22;5571;48.110;-1.706;2023-03-14T14:48:23;15.20;99.90
11035;DHT22;5571;48.110;-1.706;2023-03-14T14:51:04;15.00;99.90
11035;DHT22;5571;48.110;-1.706;2023-03-14T14:53:36;15.30;99.90
11035;DHT22;5571;48.110;-1.706;2023-03-14T14:56:21;15.70;99.90
11035;DHT22;5571;48.110;-1.706;2023-03-14T14:58:50;15.70;99.90
11035;DHT22;5571;48.110;-1.706;2023-03-14T15:01:22;15.70;99.90
11035;DHT22;5571;48.110;-1.706;2023-03-14T15:03:50;15.50;99.90
11035;DHT22;5571;48.110;-1.706;2023-03-14T15:06:17;15.30;99.90
11035;DHT22;5571;48.110;-1.706;2023-03-14T15:08:44;15.50;99.90
11035;DHT22;5571;48.110;-1.706;2023-03-14T15:11:19;15.60;99.90
11035;DHT22;5571;48.110;-1.706;2023-03-14T15:13:45;15.80;99.90
11035;DHT22;5571;48.110;-1.706;2023-03-14T15:16:12;15.80;99.90
11035;DHT22;5571;48.110;-1.706;2023-03-14T15:18:37;15.70;99.60
11035;DHT22;5571;48.110;-1.706;2023-03-14T15:21:03;15.60;99.90
11035;DHT22;5571;48.110;-1.706;2023-03-14T15:23:29;15.50;99.90
11035;DHT22;5571;48.110;-1.706;2023-03-14T15:25:55;15.80;99.90
11035;DHT22;5571;48.110;-1.706;2023-03-14T15:28:23;15.90;99.90
11035;DHT22;5571;48.110;-1.706;2023-03-14T15:30:51;16.00;99.70
11035;DHT22;5571;48.110;-1.706;2023-03-14T15:33:17;15.60;98.60
11035;DHT22;5571;48.110;-1.706;2023-03-14T15:35:43;15.60;99.10
11035;DHT22;5571;48.110;-1.706;2023-03-14T15:38:15;15.20;98.20
11035;DHT22;5571;48.110;-1.706;2023-03-14T15:40:41;15.10;98.70
11035;DHT22;5571;48.110;-1.706;2023-03-14T15:43:08;14.70;99.20
11035;DHT22;5571;48.110;-1.706;2023-03-14T15:45:34;14.70;99.90
11035;DHT22;5571;48.110;-1.706;2023-03-14T15:48:00;14.80;99.70
11035;DHT22;5571;48.110;-1.706;2023-03-14T15:50:26;14.60;98.60
11035;DHT22;5571;48.110;-1.706;2023-03-14T15:52:52;14.60;98.90
11035;DHT22;5571;48.110;-1.706;2023-03-14T15:55:18;14.50;99.40
11035;DHT22;5571;48.110;-1.706;2023-03-14T15:57:44;14.40;99.90
11035;DHT22;5571;48.110;-1.706;2023-03-14T16:00:16;14.40;99.90
11035;DHT22;5571;48.110;-1.706;2023-03-14T16:02:43;14.40;99.90
11035;DHT22;5571;48.110;-1.706;2023-03-14T16:05:10;14.20;99.90
11035;DHT22;5571;48.110;-1.706;2023-03-14T16:07:36;13.90;99.90
11035;DHT22;5571;48.110;-1.706;2023-03-14T16:10:03;13.50;99.90
11035;DHT22;5571;48.110;-1.706;2023-03-14T16:12:30;13.40;99.90
11035;DHT22;5571;48.110;-1.706;2023-03-14T16:14:56;13.40;99.90
11035;DHT22;5571;48.110;-1.706;2023-03-14T16:17:21;13.50;99.90
11035;DHT22;5571;48.110;-1.706;2023-03-14T16:19:47;13.50;99.90
11035;DHT22;5571;48.110;-1.706;2023-03-14T16:22:12;13.60;99.90
11035;DHT22;5571;48.110;-1.706;2023-03-14T16:24:38;13.50;99.90
11035;DHT22;5571;48.110;-1.706;2023-03-14T16:27:04;13.50;99.90
11035;DHT22;5571;48.110;-1.706;2023-03-14T16:29:30;13.30;99.90
11035;DHT22;5571;48.110;-1.706;2023-03-14T16:31:55;13.10;99.90
11035;DHT22;5571;48.110;-1.706;2023-03-14T16:34:21;13.20;99.90